sensor_id;sensor_type;location;lat;lon;timestamp;P1;P2;P0
49914;PMS5003;35806;47.958;13.158;2024-03-02T00:01:37;52;44;
49914;PMS5003;35806;47.958;13.158;2024-03-02T00:04:05;45;40;
49914;PMS5003;35806;47.958;13.158;2024-03-02T00:06:34;52;43;
49914;PMS5003;35806;47.958;13.158;2024-03-02T00:09:01;45;44;
49914;PMS5003;35806;47.958;13.158;2024-03-02T00:11:29;52;44;
49914;PMS5003;35806;47.958;13.158;2024-03-02T00:14:17;51;46;
49914;PMS5003;35806;47.958;13.158;2024-03-02T00:16:44;42;38;
49914;PMS5003;35806;47.958;13.158;2024-03-02T00:19:11;53;47;
49914;PMS5003;35806;47.958;13.158;2024-03-02T00:21:40;52;45;
49914;PMS5003;35806;47.958;13.158;2024-03-02T00:24:12;44;37;
49914;PMS5003;35806;47.958;13.158;2024-03-02T00:26:47;52;47;
49914;PMS5003;35806;47.958;13.158;2024-03-02T00:29:15;45;42;
49914;PMS5003;35806;47.958;13.158;2024-03-02T00:31:44;49;43;
49914;PMS5003;35806;47.958;13.158;2024-03-02T00:34:11;48;43;
49914;PMS5003;35806;47.958;13.158;2024-03-02T00:36:40;45;37;
49914;PMS5003;35806;47.958;13.158;2024-03-02T00:39:08;48;42;
49914;PMS5003;35806;47.958;13.158;2024-03-02T00:41:38;50;41;
49914;PMS5003;35806;47.958;13.158;2024-03-02T00:44:09;49;44;
49914;PMS5003;35806;47.958;13.158;2024-03-02T00:46:38;45;40;
49914;PMS5003;35806;47.958;13.158;2024-03-02T00:49:11;35;35;
49914;PMS5003;35806;47.958;13.158;2024-03-02T00:51:45;38;32;
49914;PMS5003;35806;47.958;13.158;2024-03-02T00:54:14;39;37;
49914;PMS5003;35806;47.958;13.158;2024-03-02T00:56:45;43;40;
49914;PMS5003;35806;47.958;13.158;2024-03-02T00:59:14;47;45;
49914;PMS5003;35806;47.958;13.158;2024-03-02T01:02:02;48;43;
49914;PMS5003;35806;47.958;13.158;2024-03-02T01:04:30;47;40;
49914;PMS5003;35806;47.958;13.158;2024-03-02T01:06:58;48;43;
49914;PMS5003;35806;47.958;13.158;2024-03-02T01:09:25;36;35;
49914;PMS5003;35806;47.958;13.158;2024-03-02T01:11:58;49;44;
49914;PMS5003;35806;47.958;13.158;2024-03-02T01:14:31;42;37;
49914;PMS5003;35806;47.958;13.158;2024-03-02T01:16:58;49;43;
49914;PMS5003;35806;47.958;13.158;2024-03-02T01:19:26;38;32;
49914;PMS5003;35806;47.958;13.158;2024-03-02T01:21:53;41;39;
49914;PMS5003;35806;47.958;13.158;2024-03-02T01:24:21;47;42;
49914;PMS5003;35806;47.958;13.158;2024-03-02T01:26:49;33;31;
49914;PMS5003;35806;47.958;13.158;2024-03-02T01:29:17;45;40;
49914;PMS5003;35806;47.958;13.158;2024-03-02T01:31:44;44;41;
49914;PMS5003;35806;47.958;13.158;2024-03-02T01:34:11;37;33;
49914;PMS5003;35806;47.958;13.158;2024-03-02T01:36:38;41;35;
49914;PMS5003;35806;47.958;13.158;2024-03-02T01:39:06;49;41;
49914;PMS5003;35806;47.958;13.158;2024-03-02T01:41:33;54;44;
49914;PMS5003;35806;47.958;13.158;2024-03-02T01:44:01;48;43;
49914;PMS5003;35806;47.958;13.158;2024-03-02T01:46:28;46;36;
49914;PMS5003;35806;47.958;13.158;2024-03-02T01:48:55;43;37;
49914;PMS5003;35806;47.958;13.158;2024-03-02T01:51:23;42;37;
49914;PMS5003;35806;47.958;13.158;2024-03-02T01:53:50;37;33;
49914;PMS5003;35806;47.958;13.158;2024-03-02T01:56:18;45;41;
49914;PMS5003;35806;47.958;13.158;2024-03-02T01:58:46;41;37;
49914;PMS5003;35806;47.958;13.158;2024-03-02T02:01:13;35;32;
49914;PMS5003;35806;47.958;13.158;2024-03-02T02:03:41;35;33;
49914;PMS5003;35806;47.958;13.158;2024-03-02T02:06:09;45;43;
49914;PMS5003;35806;47.958;13.158;2024-03-02T02:08:37;52;42;
49914;PMS5003;35806;47.958;13.158;2024-03-02T02:11:05;49;43;
49914;PMS5003;35806;47.958;13.158;2024-03-02T02:13:33;52;44;
49914;PMS5003;35806;47.958;13.158;2024-03-02T02:16:05;48;38;
49914;PMS5003;35806;47.958;13.158;2024-03-02T02:18:33;41;39;
49914;PMS5003;35806;47.958;13.158;2024-03-02T02:21:01;44;39;
49914;PMS5003;35806;47.958;13.158;2024-03-02T02:23:28;36;34;
49914;PMS5003;35806;47.958;13.158;2024-03-02T02:25:56;47;44;
49914;PMS5003;35806;47.958;13.158;2024-03-02T02:28:23;44;37;
49914;PMS5003;35806;47.958;13.158;2024-03-02T02:30:51;50;42;
49914;PMS5003;35806;47.958;13.158;2024-03-02T02:33:18;44;39;
49914;PMS5003;35806;47.958;13.158;2024-03-02T02:35:45;37;32;
49914;PMS5003;35806;47.958;13.158;2024-03-02T02:38:13;48;40;
49914;PMS5003;35806;47.958;13.158;2024-03-02T02:40:40;39;37;
49914;PMS5003;35806;47.958;13.158;2024-03-02T02:43:13;54;44;
49914;PMS5003;35806;47.958;13.158;2024-03-02T02:45:40;45;38;
49914;PMS5003;35806;47.958;13.158;2024-03-02T02:48:23;49;41;
49914;PMS5003;35806;47.958;13.158;2024-03-02T02:50:51;48;42;
49914;PMS5003;35806;47.958;13.158;2024-03-02T02:53:18;48;41;
49914;PMS5003;35806;47.958;13.158;2024-03-02T02:55:46;50;45;
49914;PMS5003;35806;47.958;13.158;2024-03-02T02:58:14;51;42;
49914;PMS5003;35806;47.958;13.158;2024-03-02T03:00:41;46;44;
49914;PMS5003;35806;47.958;13.158;2024-03-02T03:03:09;43;39;
49914;PMS5003;35806;47.958;13.158;2024-03-02T03:05:37;45;41;
49914;PMS5003;35806;47.958;13.158;2024-03-02T03:08:05;53;50;
49914;PMS5003;35806;47.958;13.158;2024-03-02T03:10:38;56;47;
49914;PMS5003;35806;47.958;13.158;2024-03-02T03:13:05;44;40;
49914;PMS5003;35806;47.958;13.158;2024-03-02T03:15:34;52;42;
49914;PMS5003;35806;47.958;13.158;2024-03-02T03:18:01;46;37;
49914;PMS5003;35806;47.958;13.158;2024-03-02T03:20:29;43;41;
49914;PMS5003;35806;47.958;13.158;2024-03-02T03:22:57;46;42;
49914;PMS5003;35806;47.958;13.158;2024-03-02T03:25:24;48;42;
49914;PMS5003;35806;47.958;13.158;2024-03-02T03:27:52;47;43;
49914;PMS5003;35806;47.958;13.158;2024-03-02T03:30:19;47;37;
49914;PMS5003;35806;47.958;13.158;2024-03-02T03:32:47;41;39;
49914;PMS5003;35806;47.958;13.158;2024-03-02T03:35:14;41;37;
49914;PMS5003;35806;47.958;13.158;2024-03-02T03:37:42;47;43;
49914;PMS5003;35806;47.958;13.158;2024-03-02T03:40:10;46;40;
49914;PMS5003;35806;47.958;13.158;2024-03-02T03:42:38;45;40;
49914;PMS5003;35806;47.958;13.158;2024-03-02T03:45:07;47;40;
49914;PMS5003;35806;47.958;13.158;2024-03-02T03:47:35;38;34;
49914;PMS5003;35806;47.958;13.158;2024-03-02T03:50:02;42;38;
49914;PMS5003;35806;47.958;13.158;2024-03-02T03:52:31;47;44;
49914;PMS5003;35806;47.958;13.158;2024-03-02T03:55:19;47;39;
49914;PMS5003;35806;47.958;13.158;2024-03-02T03:57:46;48;41;
49914;PMS5003;35806;47.958;13.158;2024-03-02T04:00:14;41;35;
49914;PMS5003;35806;47.958;13.158;2024-03-02T04:02:42;42;36;
49914;PMS5003;35806;47.958;13.158;2024-03-02T04:05:09;47;43;
49914;PMS5003;35806;47.958;13.158;2024-03-02T04:07:36;45;42;
49914;PMS5003;35806;47.958;13.158;2024-03-02T04:10:05;48;40;
49914;PMS5003;35806;47.958;13.158;2024-03-02T04:12:33;53;41;
49914;PMS5003;35806;47.958;13.158;2024-03-02T04:15:01;41;38;
49914;PMS5003;35806;47.958;13.158;2024-03-02T04:17:31;35;33;
49914;PMS5003;35806;47.958;13.158;2024-03-02T04:19:59;37;29;
49914;PMS5003;35806;47.958;13.158;2024-03-02T04:22:26;39;32;
49914;PMS5003;35806;47.958;13.158;2024-03-02T04:25:00;37;33;
49914;PMS5003;35806;47.958;13.158;2024-03-02T04:27:27;35;33;
49914;PMS5003;35806;47.958;13.158;2024-03-02T04:29:55;38;30;
49914;PMS5003;35806;47.958;13.158;2024-03-02T04:32:22;36;32;
49914;PMS5003;35806;47.958;13.158;2024-03-02T04:34:50;44;40;
49914;PMS5003;35806;47.958;13.158;2024-03-02T04:37:17;56;49;
49914;PMS5003;35806;47.958;13.158;2024-03-02T04:39:44;46;42;
49914;PMS5003;35806;47.958;13.158;2024-03-02T04:42:12;44;38;
49914;PMS5003;35806;47.958;13.158;2024-03-02T04:44:39;47;41;
49914;PMS5003;35806;47.958;13.158;2024-03-02T04:47:07;49;40;
49914;PMS5003;35806;47.958;13.158;2024-03-02T04:49:34;51;40;
49914;PMS5003;35806;47.958;13.158;2024-03-02T04:52:01;48;41;
49914;PMS5003;35806;47.958;13.158;2024-03-02T04:54:29;47;41;
49914;PMS5003;35806;47.958;13.158;2024-03-02T04:56:55;44;39;
49914;PMS5003;35806;47.958;13.158;2024-03-02T04:59:23;44;38;
49914;PMS5003;35806;47.958;13.158;2024-03-02T05:01:50;44;37;
49914;PMS5003;35806;47.958;13.158;2024-03-02T05:04:17;52;43;
49914;PMS5003;35806;47.958;13.158;2024-03-02T05:06:44;51;44;
49914;PMS5003;35806;47.958;13.158;2024-03-02T05:09:11;51;42;
49914;PMS5003;35806;47.958;13.158;2024-03-02T05:11:39;47;41;
49914;PMS5003;35806;47.958;13.158;2024-03-02T05:14:06;54;45;
49914;PMS5003;35806;47.958;13.158;2024-03-02T05:16:39;40;35;
49914;PMS5003;35806;47.958;13.158;2024-03-02T05:19:07;49;43;
49914;PMS5003;35806;47.958;13.158;2024-03-02T05:21:35;57;49;
49914;PMS5003;35806;47.958;13.158;2024-03-02T05:24:02;59;47;
49914;PMS5003;35806;47.958;13.158;2024-03-02T05:26:30;43;41;
49914;PMS5003;35806;47.958;13.158;2024-03-02T05:28:57;46;37;
49914;PMS5003;35806;47.958;13.158;2024-03-02T05:31:24;40;35;
49914;PMS5003;35806;47.958;13.158;2024-03-02T05:33:51;46;37;
49914;PMS5003;35806;47.958;13.158;2024-03-02T05:36:19;50;43;
49914;PMS5003;35806;47.958;13.158;2024-03-02T05:38:45;47;36;
49914;PMS5003;35806;47.958;13.158;2024-03-02T05:41:13;44;40;
49914;PMS5003;35806;47.958;13.158;2024-03-02T05:43:40;50;42;
49914;PMS5003;35806;47.958;13.158;2024-03-02T05:46:07;49;41;
49914;PMS5003;35806;47.958;13.158;2024-03-02T05:48:35;49;39;
49914;PMS5003;35806;47.958;13.158;2024-03-02T05:51:02;51;45;
49914;PMS5003;35806;47.958;13.158;2024-03-02T05:53:30;52;43;
49914;PMS5003;35806;47.958;13.158;2024-03-02T05:55:57;48;39;
49914;PMS5003;35806;47.958;13.158;2024-03-02T05:58:24;48;40;
49914;PMS5003;35806;47.958;13.158;2024-03-02T06:00:52;43;33;
49914;PMS5003;35806;47.958;13.158;2024-03-02T06:03:19;52;42;
49914;PMS5003;35806;47.958;13.158;2024-03-02T06:05:47;51;44;
49914;PMS5003;35806;47.958;13.158;2024-03-02T06:08:14;48;39;
49914;PMS5003;35806;47.958;13.158;2024-03-02T06:10:42;39;34;
49914;PMS5003;35806;47.958;13.158;2024-03-02T06:13:10;52;48;
49914;PMS5003;35806;47.958;13.158;2024-03-02T06:15:37;59;48;
49914;PMS5003;35806;47.958;13.158;2024-03-02T06:18:05;60;47;
49914;PMS5003;35806;47.958;13.158;2024-03-02T06:20:33;56;48;
49914;PMS5003;35806;47.958;13.158;2024-03-02T06:23:00;52;46;
49914;PMS5003;35806;47.958;13.158;2024-03-02T06:25:27;50;43;
49914;PMS5003;35806;47.958;13.158;2024-03-02T06:27:55;46;39;
49914;PMS5003;35806;47.958;13.158;2024-03-02T06:30:22;47;44;
49914;PMS5003;35806;47.958;13.158;2024-03-02T06:32:49;45;38;
49914;PMS5003;35806;47.958;13.158;2024-03-02T06:35:16;41;38;
49914;PMS5003;35806;47.958;13.158;2024-03-02T06:37:44;44;37;
49914;PMS5003;35806;47.958;13.158;2024-03-02T06:40:11;45;39;
49914;PMS5003;35806;47.958;13.158;2024-03-02T06:42:38;31;27;
49914;PMS5003;35806;47.958;13.158;2024-03-02T06:45:06;45;44;
49914;PMS5003;35806;47.958;13.158;2024-03-02T06:47:34;40;35;
49914;PMS5003;35806;47.958;13.158;2024-03-02T06:50:01;44;41;
49914;PMS5003;35806;47.958;13.158;2024-03-02T06:52:28;50;43;
49914;PMS5003;35806;47.958;13.158;2024-03-02T06:54:55;33;30;
49914;PMS5003;35806;47.958;13.158;2024-03-02T06:57:23;41;36;
49914;PMS5003;35806;47.958;13.158;2024-03-02T06:59:50;39;38;
49914;PMS5003;35806;47.958;13.158;2024-03-02T07:02:18;42;37;
49914;PMS5003;35806;47.958;13.158;2024-03-02T07:05:01;36;33;
49914;PMS5003;35806;47.958;13.158;2024-03-02T07:07:29;43;38;
49914;PMS5003;35806;47.958;13.158;2024-03-02T07:10:01;42;36;
49914;PMS5003;35806;47.958;13.158;2024-03-02T07:12:28;39;36;
49914;PMS5003;35806;47.958;13.158;2024-03-02T07:14:56;36;34;
49914;PMS5003;35806;47.958;13.158;2024-03-02T07:17:23;37;34;
49914;PMS5003;35806;47.958;13.158;2024-03-02T07:19:50;38;37;
49914;PMS5003;35806;47.958;13.158;2024-03-02T07:22:18;38;35;
49914;PMS5003;35806;47.958;13.158;2024-03-02T07:24:45;51;48;
49914;PMS5003;35806;47.958;13.158;2024-03-02T07:27:17;45;40;
49914;PMS5003;35806;47.958;13.158;2024-03-02T07:29:45;42;37;
49914;PMS5003;35806;47.958;13.158;2024-03-02T07:32:13;48;44;
49914;PMS5003;35806;47.958;13.158;2024-03-02T07:34:40;47;41;
49914;PMS5003;35806;47.958;13.158;2024-03-02T07:37:13;55;45;
49914;PMS5003;35806;47.958;13.158;2024-03-02T07:39:41;55;49;
49914;PMS5003;35806;47.958;13.158;2024-03-02T07:42:08;59;52;
49914;PMS5003;35806;47.958;13.158;2024-03-02T07:44:36;61;47;
49914;PMS5003;35806;47.958;13.158;2024-03-02T07:47:04;56;47;
49914;PMS5003;35806;47.958;13.158;2024-03-02T07:49:37;55;49;
49914;PMS5003;35806;47.958;13.158;2024-03-02T07:52:10;54;48;
49914;PMS5003;35806;47.958;13.158;2024-03-02T07:54:38;53;49;
49914;PMS5003;35806;47.958;13.158;2024-03-02T07:57:07;62;51;
49914;PMS5003;35806;47.958;13.158;2024-03-02T07:59:45;47;42;
49914;PMS5003;35806;47.958;13.158;2024-03-02T08:02:12;50;45;
49914;PMS5003;35806;47.958;13.158;2024-03-02T08:04:40;58;53;
49914;PMS5003;35806;47.958;13.158;2024-03-02T08:07:08;57;56;
49914;PMS5003;35806;47.958;13.158;2024-03-02T08:09:35;53;47;
49914;PMS5003;35806;47.958;13.158;2024-03-02T08:12:03;60;51;
49914;PMS5003;35806;47.958;13.158;2024-03-02T08:14:30;49;48;
49914;PMS5003;35806;47.958;13.158;2024-03-02T08:16:58;61;52;
49914;PMS5003;35806;47.958;13.158;2024-03-02T08:19:45;56;51;
49914;PMS5003;35806;47.958;13.158;2024-03-02T08:22:13;58;52;
49914;PMS5003;35806;47.958;13.158;2024-03-02T08:24:40;56;51;
49914;PMS5003;35806;47.958;13.158;2024-03-02T08:27:08;54;50;
49914;PMS5003;35806;47.958;13.158;2024-03-02T08:29:36;53;47;
49914;PMS5003;35806;47.958;13.158;2024-03-02T08:32:04;53;46;
49914;PMS5003;35806;47.958;13.158;2024-03-02T08:34:32;47;43;
49914;PMS5003;35806;47.958;13.158;2024-03-02T08:37:05;41;36;
49914;PMS5003;35806;47.958;13.158;2024-03-02T08:39:33;49;42;
49914;PMS5003;35806;47.958;13.158;2024-03-02T08:42:00;45;39;
49914;PMS5003;35806;47.958;13.158;2024-03-02T08:44:28;41;35;
49914;PMS5003;35806;47.958;13.158;2024-03-02T08:46:55;44;38;
49914;PMS5003;35806;47.958;13.158;2024-03-02T08:49:23;47;40;
49914;PMS5003;35806;47.958;13.158;2024-03-02T08:51:49;46;41;
49914;PMS5003;35806;47.958;13.158;2024-03-02T08:54:17;43;37;
49914;PMS5003;35806;47.958;13.158;2024-03-02T08:56:44;36;31;
49914;PMS5003;35806;47.958;13.158;2024-03-02T08:59:11;45;39;
49914;PMS5003;35806;47.958;13.158;2024-03-02T09:01:39;39;32;
49914;PMS5003;35806;47.958;13.158;2024-03-02T09:04:06;33;32;
49914;PMS5003;35806;47.958;13.158;2024-03-02T09:06:33;37;33;
49914;PMS5003;35806;47.958;13.158;2024-03-02T09:09:01;32;29;
49914;PMS5003;35806;47.958;13.158;2024-03-02T09:11:29;33;32;
49914;PMS5003;35806;47.958;13.158;2024-03-02T09:13:56;35;32;
49914;PMS5003;35806;47.958;13.158;2024-03-02T09:16:24;31;23;
49914;PMS5003;35806;47.958;13.158;2024-03-02T09:18:51;35;29;
49914;PMS5003;35806;47.958;13.158;2024-03-02T09:21:18;32;30;
49914;PMS5003;35806;47.958;13.158;2024-03-02T09:23:46;29;27;
49914;PMS5003;35806;47.958;13.158;2024-03-02T09:26:13;30;29;
49914;PMS5003;35806;47.958;13.158;2024-03-02T09:28:42;32;27;
49914;PMS5003;35806;47.958;13.158;2024-03-02T09:31:10;33;30;
49914;PMS5003;35806;47.958;13.158;2024-03-02T09:33:37;26;25;
49914;PMS5003;35806;47.958;13.158;2024-03-02T09:36:06;29;26;
49914;PMS5003;35806;47.958;13.158;2024-03-02T09:38:42;28;26;
49914;PMS5003;35806;47.958;13.158;2024-03-02T09:41:10;24;21;
49914;PMS5003;35806;47.958;13.158;2024-03-02T09:43:38;24;18;
49914;PMS5003;35806;47.958;13.158;2024-03-02T09:46:08;22;17;
49914;PMS5003;35806;47.958;13.158;2024-03-02T09:48:43;25;25;
49914;PMS5003;35806;47.958;13.158;2024-03-02T09:51:12;29;28;
49914;PMS5003;35806;47.958;13.158;2024-03-02T09:53:40;21;21;
49914;PMS5003;35806;47.958;13.158;2024-03-02T09:56:07;22;19;
49914;PMS5003;35806;47.958;13.158;2024-03-02T09:58:36;18;17;
49914;PMS5003;35806;47.958;13.158;2024-03-02T10:01:12;27;26;
49914;PMS5003;35806;47.958;13.158;2024-03-02T10:03:39;25;22;
49914;PMS5003;35806;47.958;13.158;2024-03-02T10:06:23;27;22;
49914;PMS5003;35806;47.958;13.158;2024-03-02T10:08:53;29;29;
49914;PMS5003;35806;47.958;13.158;2024-03-02T10:11:32;17;16;
49914;PMS5003;35806;47.958;13.158;2024-03-02T10:14:04;27;25;
49914;PMS5003;35806;47.958;13.158;2024-03-02T10:16:37;26;23;
49914;PMS5003;35806;47.958;13.158;2024-03-02T10:19:15;19;17;
49914;PMS5003;35806;47.958;13.158;2024-03-02T10:21:43;23;21;
49914;PMS5003;35806;47.958;13.158;2024-03-02T10:24:11;24;21;
49914;PMS5003;35806;47.958;13.158;2024-03-02T10:26:39;21;18;
49914;PMS5003;35806;47.958;13.158;2024-03-02T10:29:06;19;16;
49914;PMS5003;35806;47.958;13.158;2024-03-02T10:31:34;23;22;
49914;PMS5003;35806;47.958;13.158;2024-03-02T10:34:03;19;16;
49914;PMS5003;35806;47.958;13.158;2024-03-02T10:36:38;24;24;
49914;PMS5003;35806;47.958;13.158;2024-03-02T10:39:14;16;16;
49914;PMS5003;35806;47.958;13.158;2024-03-02T10:41:41;19;17;
49914;PMS5003;35806;47.958;13.158;2024-03-02T10:44:10;17;17;
49914;PMS5003;35806;47.958;13.158;2024-03-02T10:46:38;16;15;
49914;PMS5003;35806;47.958;13.158;2024-03-02T10:49:11;23;22;
49914;PMS5003;35806;47.958;13.158;2024-03-02T10:51:39;20;19;
49914;PMS5003;35806;47.958;13.158;2024-03-02T10:54:12;17;17;
49914;PMS5003;35806;47.958;13.158;2024-03-02T10:56:45;20;19;
49914;PMS5003;35806;47.958;13.158;2024-03-02T10:59:21;16;15;
49914;PMS5003;35806;47.958;13.158;2024-03-02T11:01:55;23;21;
49914;PMS5003;35806;47.958;13.158;2024-03-02T11:04:24;26;24;
49914;PMS5003;35806;47.958;13.158;2024-03-02T11:06:56;35;28;
49914;PMS5003;35806;47.958;13.158;2024-03-02T11:09:28;27;24;
49914;PMS5003;35806;47.958;13.158;2024-03-02T11:11:59;25;22;
49914;PMS5003;35806;47.958;13.158;2024-03-02T11:14:31;31;31;
49914;PMS5003;35806;47.958;13.158;2024-03-02T11:16:58;31;28;
49914;PMS5003;35806;47.958;13.158;2024-03-02T11:17:35;32;29;
49914;PMS5003;35806;47.958;13.158;2024-03-02T11:20:04;36;33;
49914;PMS5003;35806;47.958;13.158;2024-03-02T11:22:41;39;36;
49914;PMS5003;35806;47.958;13.158;2024-03-02T11:25:24;33;30;
49914;PMS5003;35806;47.958;13.158;2024-03-02T11:28:02;41;37;
49914;PMS5003;35806;47.958;13.158;2024-03-02T11:30:54;41;36;
49914;PMS5003;35806;47.958;13.158;2024-03-02T11:33:26;40;35;
49914;PMS5003;35806;47.958;13.158;2024-03-02T11:35:53;44;35;
49914;PMS5003;35806;47.958;13.158;2024-03-02T11:38:28;39;37;
49914;PMS5003;35806;47.958;13.158;2024-03-02T11:40:59;41;35;
49914;PMS5003;35806;47.958;13.158;2024-03-02T11:43:27;31;29;
49914;PMS5003;35806;47.958;13.158;2024-03-02T11:45:58;38;35;
49914;PMS5003;35806;47.958;13.158;2024-03-02T11:48:25;29;28;
49914;PMS5003;35806;47.958;13.158;2024-03-02T11:50:53;36;30;
49914;PMS5003;35806;47.958;13.158;2024-03-02T11:53:25;34;34;
49914;PMS5003;35806;47.958;13.158;2024-03-02T11:55:54;28;26;
49914;PMS5003;35806;47.958;13.158;2024-03-02T11:58:22;29;25;
49914;PMS5003;35806;47.958;13.158;2024-03-02T12:00:51;28;27;
49914;PMS5003;35806;47.958;13.158;2024-03-02T12:03:24;29;27;
49914;PMS5003;35806;47.958;13.158;2024-03-02T12:05:52;28;26;
49914;PMS5003;35806;47.958;13.158;2024-03-02T12:08:20;21;20;
49914;PMS5003;35806;47.958;13.158;2024-03-02T12:11:00;22;18;
49914;PMS5003;35806;47.958;13.158;2024-03-02T12:13:30;27;21;
49914;PMS5003;35806;47.958;13.158;2024-03-02T12:15:58;33;31;
49914;PMS5003;35806;47.958;13.158;2024-03-02T12:18:25;20;19;
49914;PMS5003;35806;47.958;13.158;2024-03-02T12:20:53;27;24;
49914;PMS5003;35806;47.958;13.158;2024-03-02T12:23:20;22;20;
49914;PMS5003;35806;47.958;13.158;2024-03-02T12:25:48;21;20;
49914;PMS5003;35806;47.958;13.158;2024-03-02T12:28:15;26;23;
49914;PMS5003;35806;47.958;13.158;2024-03-02T12:30:43;38;35;
49914;PMS5003;35806;47.958;13.158;2024-03-02T12:33:11;32;30;
49914;PMS5003;35806;47.958;13.158;2024-03-02T12:35:38;28;27;
49914;PMS5003;35806;47.958;13.158;2024-03-02T12:38:05;37;35;
49914;PMS5003;35806;47.958;13.158;2024-03-02T12:40:32;36;30;
49914;PMS5003;35806;47.958;13.158;2024-03-02T12:43:00;40;37;
49914;PMS5003;35806;47.958;13.158;2024-03-02T12:45:27;42;37;
49914;PMS5003;35806;47.958;13.158;2024-03-02T12:47:55;41;37;
49914;PMS5003;35806;47.958;13.158;2024-03-02T12:50:26;52;44;
49914;PMS5003;35806;47.958;13.158;2024-03-02T12:52:54;32;32;
49914;PMS5003;35806;47.958;13.158;2024-03-02T12:55:22;33;31;
49914;PMS5003;35806;47.958;13.158;2024-03-02T12:57:50;30;27;
49914;PMS5003;35806;47.958;13.158;2024-03-02T13:00:18;38;34;
49914;PMS5003;35806;47.958;13.158;2024-03-02T13:02:46;34;31;
49914;PMS5003;35806;47.958;13.158;2024-03-02T13:05:14;31;30;
49914;PMS5003;35806;47.958;13.158;2024-03-02T13:07:41;38;32;
49914;PMS5003;35806;47.958;13.158;2024-03-02T13:10:09;32;32;
49914;PMS5003;35806;47.958;13.158;2024-03-02T13:12:36;28;26;
49914;PMS5003;35806;47.958;13.158;2024-03-02T13:15:04;29;24;
49914;PMS5003;35806;47.958;13.158;2024-03-02T13:17:46;31;27;
49914;PMS5003;35806;47.958;13.158;2024-03-02T13:20:16;28;24;
49914;PMS5003;35806;47.958;13.158;2024-03-02T13:22:45;33;30;
49914;PMS5003;35806;47.958;13.158;2024-03-02T13:25:14;28;28;
49914;PMS5003;35806;47.958;13.158;2024-03-02T13:27:41;42;34;
49914;PMS5003;35806;47.958;13.158;2024-03-02T13:30:09;40;34;
49914;PMS5003;35806;47.958;13.158;2024-03-02T13:32:37;40;39;
49914;PMS5003;35806;47.958;13.158;2024-03-02T13:35:05;41;37;
49914;PMS5003;35806;47.958;13.158;2024-03-02T13:37:33;40;38;
49914;PMS5003;35806;47.958;13.158;2024-03-02T13:40:00;37;31;
49914;PMS5003;35806;47.958;13.158;2024-03-02T13:42:27;46;42;
49914;PMS5003;35806;47.958;13.158;2024-03-02T13:44:55;48;43;
49914;PMS5003;35806;47.958;13.158;2024-03-02T13:47:22;44;36;
49914;PMS5003;35806;47.958;13.158;2024-03-02T13:49:50;42;38;
49914;PMS5003;35806;47.958;13.158;2024-03-02T13:52:18;41;35;
49914;PMS5003;35806;47.958;13.158;2024-03-02T13:54:46;42;39;
49914;PMS5003;35806;47.958;13.158;2024-03-02T13:57:14;42;40;
49914;PMS5003;35806;47.958;13.158;2024-03-02T13:59:41;40;39;
49914;PMS5003;35806;47.958;13.158;2024-03-02T14:02:10;44;36;
49914;PMS5003;35806;47.958;13.158;2024-03-02T14:04:38;40;39;
49914;PMS5003;35806;47.958;13.158;2024-03-02T14:07:06;45;39;
49914;PMS5003;35806;47.958;13.158;2024-03-02T14:09:39;43;40;
49914;PMS5003;35806;47.958;13.158;2024-03-02T14:12:06;54;45;
49914;PMS5003;35806;47.958;13.158;2024-03-02T14:14:39;42;39;
49914;PMS5003;35806;47.958;13.158;2024-03-02T14:17:08;41;37;
49914;PMS5003;35806;47.958;13.158;2024-03-02T14:19:36;41;37;
49914;PMS5003;35806;47.958;13.158;2024-03-02T14:22:03;42;38;
49914;PMS5003;35806;47.958;13.158;2024-03-02T14:24:31;45;41;
49914;PMS5003;35806;47.958;13.158;2024-03-02T14:26:58;43;39;
49914;PMS5003;35806;47.958;13.158;2024-03-02T14:29:25;36;31;
49914;PMS5003;35806;47.958;13.158;2024-03-02T14:31:53;45;39;
49914;PMS5003;35806;47.958;13.158;2024-03-02T14:34:26;38;31;
49914;PMS5003;35806;47.958;13.158;2024-03-02T14:36:54;47;37;
49914;PMS5003;35806;47.958;13.158;2024-03-02T14:39:21;47;41;
49914;PMS5003;35806;47.958;13.158;2024-03-02T14:41:49;40;37;
49914;PMS5003;35806;47.958;13.158;2024-03-02T14:44:16;52;42;
49914;PMS5003;35806;47.958;13.158;2024-03-02T14:46:43;46;41;
49914;PMS5003;35806;47.958;13.158;2024-03-02T14:49:19;49;41;
49914;PMS5003;35806;47.958;13.158;2024-03-02T14:51:47;51;39;
49914;PMS5003;35806;47.958;13.158;2024-03-02T14:54:14;53;44;
49914;PMS5003;35806;47.958;13.158;2024-03-02T14:56:42;52;44;
49914;PMS5003;35806;47.958;13.158;2024-03-02T14:59:10;51;43;
49914;PMS5003;35806;47.958;13.158;2024-03-02T15:01:43;54;47;
49914;PMS5003;35806;47.958;13.158;2024-03-02T15:04:11;51;43;
49914;PMS5003;35806;47.958;13.158;2024-03-02T15:06:39;44;42;
49914;PMS5003;35806;47.958;13.158;2024-03-02T15:09:08;45;44;
49914;PMS5003;35806;47.958;13.158;2024-03-02T15:11:36;39;39;
49914;PMS5003;35806;47.958;13.158;2024-03-02T15:14:03;41;37;
49914;PMS5003;35806;47.958;13.158;2024-03-02T15:16:31;37;36;
49914;PMS5003;35806;47.958;13.158;2024-03-02T15:18:58;43;37;
49914;PMS5003;35806;47.958;13.158;2024-03-02T15:21:26;45;37;
49914;PMS5003;35806;47.958;13.158;2024-03-02T15:23:53;45;35;
49914;PMS5003;35806;47.958;13.158;2024-03-02T15:26:21;47;42;
49914;PMS5003;35806;47.958;13.158;2024-03-02T15:28:48;40;40;
49914;PMS5003;35806;47.958;13.158;2024-03-02T15:31:15;44;40;
49914;PMS5003;35806;47.958;13.158;2024-03-02T15:33:43;43;40;
49914;PMS5003;35806;47.958;13.158;2024-03-02T15:36:10;40;35;
49914;PMS5003;35806;47.958;13.158;2024-03-02T15:38:39;43;36;
49914;PMS5003;35806;47.958;13.158;2024-03-02T15:41:12;46;38;
49914;PMS5003;35806;47.958;13.158;2024-03-02T15:43:54;44;39;
49914;PMS5003;35806;47.958;13.158;2024-03-02T15:46:22;38;38;
49914;PMS5003;35806;47.958;13.158;2024-03-02T15:49:17;43;38;
49914;PMS5003;35806;47.958;13.158;2024-03-02T15:51:53;38;36;
49914;PMS5003;35806;47.958;13.158;2024-03-02T15:54:22;38;34;
49914;PMS5003;35806;47.958;13.158;2024-03-02T15:56:52;50;41;
49914;PMS5003;35806;47.958;13.158;2024-03-02T15:59:45;39;35;
49914;PMS5003;35806;47.958;13.158;2024-03-02T16:02:13;49;38;
49914;PMS5003;35806;47.958;13.158;2024-03-02T16:04:51;44;39;
49914;PMS5003;35806;47.958;13.158;2024-03-02T16:07:28;40;40;
49914;PMS5003;35806;47.958;13.158;2024-03-02T16:10:00;38;37;
49914;PMS5003;35806;47.958;13.158;2024-03-02T16:12:27;36;32;